Time;durP1;ratioP1;P1;durP2;ratioP2;P2;SDS_P1;SDS_P2;PMS_P1;PMS_P2;Temp;Humidity;BMP_temperature;BMP_pressure;BME280_temperature;BME280_humidity;BME280_pressure;Samples;Min_cycle;Max_cycle;Signal;HPM_P1;HPM_P2
2022/05/02 00:02:14;;;;;;;0.10;0.10;;;;;;;;;;4794675;29;20046;-92
2022/05/02 00:04:40;;;;;;;0.10;0.10;;;;;;;;;;4780348;29;20054;-92
2022/05/02 00:07:06;;;;;;;0.10;0.10;;;;;;;;;;4780127;29;20050;-92
2022/05/02 00:09:32;;;;;;;0.10;0.10;;;;;;;;;;4779754;29;20506;-93
2022/05/02 00:11:58;;;;;;;0.10;0.10;;;;;;;;;;4779844;29;20072;-93
2022/05/02 00:14:24;;;;;;;0.10;0.10;;;;;;;;;;4794752;29;20042;-93
2022/05/02 00:16:50;;;;;;;0.10;0.10;;;;;;;;;;4778839;29;20433;-94
2022/05/02 00:19:18;;;;;;;0.10;0.10;;;;;;;;;;4780089;29;20050;-93
2022/05/02 00:21:44;;;;;;;0.10;0.10;;;;;;;;;;4779616;29;20053;-93
2022/05/02 00:24:10;;;;;;;0.10;0.10;;;;;;;;;;4779734;29;20050;-92
2022/05/02 00:26:36;;;;;;;0.10;0.10;;;;;;;;;;4794473;29;20067;-92
2022/05/02 00:29:02;;;;;;;0.17;0.17;;;;;;;;;;4779557;29;20050;-93
2022/05/02 00:31:27;;;;;;;0.10;0.10;;;;;;;;;;4779553;29;20052;-93
2022/05/02 00:33:53;;;;;;;0.10;0.10;;;;;;;;;;4794458;29;20046;-92
2022/05/02 00:36:19;;;;;;;0.10;0.10;;;;;;;;;;4794412;29;20106;-93
2022/05/02 00:38:46;;;;;;;0.10;0.10;;;;;;;;;;4779666;29;20050;-93
2022/05/02 00:41:12;;;;;;;0.10;0.10;;;;;;;;;;4779623;29;20046;-93
2022/05/02 00:43:40;;;;;;;0.10;0.10;;;;;;;;;;4794116;29;20042;-93
2022/05/02 00:46:26;;;;;;;0.10;0.10;;;;;;;;;;4809537;29;20050;-93
2022/05/02 00:48:54;;;;;;;0.10;0.10;;;;;;;;;;4779269;29;20121;-91
2022/05/02 00:51:21;;;;;;;0.10;0.10;;;;;;;;;;4779698;29;20372;-92
2022/05/02 00:53:54;;;;;;;0.10;0.10;;;;;;;;;;4793874;29;20613;-91
2022/05/02 00:56:23;;;;;;;0.10;0.10;;;;;;;;;;4794189;29;20038;-92
2022/05/02 00:58:50;;;;;;;0.10;0.10;;;;;;;;;;4778956;29;20534;-92
2022/05/02 01:01:16;;;;;;;0.10;0.10;;;;;;;;;;4778968;29;20042;-92
2022/05/02 01:03:42;;;;;;;0.10;0.10;;;;;;;;;;4793838;29;20133;-92
2022/05/02 01:08:53;;;;;;;0.10;0.10;;;;;;;;;;4795936;29;20411;-92
2022/05/02 01:11:19;;;;;;;0.10;0.10;;;;;;;;;;4793857;29;20046;-92
2022/05/02 01:13:45;;;;;;;0.10;0.10;;;;;;;;;;4779272;29;20049;-92
2022/05/02 01:16:13;;;;;;;0.10;0.10;;;;;;;;;;4778852;29;20047;-91
2022/05/02 01:18:39;;;;;;;0.10;0.10;;;;;;;;;;4779554;29;20068;-92
2022/05/02 01:21:12;;;;;;;0.10;0.10;;;;;;;;;;4779678;29;20355;-92
2022/05/02 01:23:38;;;;;;;;;;;;;;;;;;4780549;29;20122;-94
2022/05/02 01:26:04;;;;;;;0.10;0.10;;;;;;;;;;4822851;29;19913;-91
2022/05/02 01:28:30;;;;;;;0.10;0.10;;;;;;;;;;4801254;29;20042;-92
2022/05/02 01:30:57;;;;;;;0.10;0.10;;;;;;;;;;4796601;29;20054;-93
2022/05/02 01:33:23;;;;;;;0.20;0.20;;;;;;;;;;4782019;29;20042;-95
2022/05/02 01:35:49;;;;;;;0.10;0.10;;;;;;;;;;4787039;29;20032;-92
2022/05/02 01:38:15;;;;;;;0.10;0.10;;;;;;;;;;4800544;29;20106;-93
2022/05/02 01:40:41;;;;;;;0.10;0.10;;;;;;;;;;4794534;29;20057;-92
2022/05/02 01:43:07;;;;;;;0.10;0.10;;;;;;;;;;4793498;29;20042;-92
2022/05/02 01:45:33;;;;;;;0.10;0.10;;;;;;;;;;4778611;29;20042;-91
2022/05/02 01:47:59;;;;;;;0.10;0.10;;;;;;;;;;4778386;29;20057;-91
2022/05/02 01:50:25;;;;;;;0.10;0.10;;;;;;;;;;4778230;29;20061;-91
2022/05/02 01:52:51;;;;;;;0.10;0.10;;;;;;;;;;4792843;29;20479;-91
2022/05/02 01:55:18;;;;;;;0.10;0.10;;;;;;;;;;4792903;29;20042;-91
2022/05/02 01:57:47;;;;;;;0.10;0.10;;;;;;;;;;4778265;29;20049;-91
2022/05/02 02:00:13;;;;;;;0.10;0.10;;;;;;;;;;4778655;29;20058;-91
2022/05/02 02:02:39;;;;;;;0.20;0.20;;;;;;;;;;4792783;29;20495;-91
2022/05/02 02:07:50;;;;;;;0.10;0.10;;;;;;;;;;4795029;29;20046;-92
2022/05/02 02:10:16;;;;;;;0.10;0.10;;;;;;;;;;4792560;29;20149;-89
2022/05/02 02:12:42;;;;;;;0.10;0.10;;;;;;;;;;4807647;29;20043;-92
2022/05/02 02:15:08;;;;;;;0.10;0.10;;;;;;;;;;4778429;29;20046;-94
2022/05/02 02:17:34;;;;;;;0.10;0.10;;;;;;;;;;4778218;29;20049;-92
2022/05/02 02:20:00;;;;;;;0.10;0.10;;;;;;;;;;4778011;29;20046;-92
2022/05/02 02:22:27;;;;;;;0.10;0.10;;;;;;;;;;4777883;29;20046;-92
2022/05/02 02:24:53;;;;;;;0.08;0.08;;;;;;;;;;4778121;29;20049;-93
2022/05/02 02:27:19;;;;;;;0.73;0.50;;;;;;;;;;4777904;29;20054;-93
2022/05/02 02:29:45;;;;;;;0.10;0.10;;;;;;;;;;4778197;29;20050;-92
2022/05/02 02:32:11;;;;;;;0.10;0.10;;;;;;;;;;4777794;29;20149;-93
2022/05/02 02:34:37;;;;;;;0.15;0.15;;;;;;;;;;4778177;29;20046;-93
2022/05/02 02:37:03;;;;;;;0.10;0.10;;;;;;;;;;4777873;29;20038;-94
2022/05/02 02:39:29;;;;;;;0.10;0.10;;;;;;;;;;4778204;29;20099;-93
2022/05/02 02:41:55;;;;;;;0.10;0.10;;;;;;;;;;4781629;29;20054;-93
2022/05/02 02:44:21;;;;;;;0.15;0.15;;;;;;;;;;4781320;29;20464;-94
2022/05/02 02:46:47;;;;;;;0.20;0.20;;;;;;;;;;4781493;29;20057;-93
2022/05/02 02:49:13;;;;;;;0.20;0.20;;;;;;;;;;4796191;29;20049;-93
2022/05/02 02:51:39;;;;;;;0.10;0.10;;;;;;;;;;4796417;29;20087;-93
2022/05/02 02:54:05;;;;;;;0.10;0.10;;;;;;;;;;4781447;29;20125;-93
2022/05/02 02:56:31;;;;;;;0.10;0.10;;;;;;;;;;4781191;29;20050;-94
2022/05/02 02:58:57;;;;;;;0.10;0.10;;;;;;;;;;4780809;29;20157;-92
2022/05/02 03:01:23;;;;;;;0.10;0.10;;;;;;;;;;4796009;29;20403;-93
2022/05/02 03:03:49;;;;;;;0.10;0.10;;;;;;;;;;4780916;29;20057;-93
2022/05/02 03:06:15;;;;;;;0.10;0.10;;;;;;;;;;4781030;29;20050;-92
2022/05/02 03:08:41;;;;;;;0.10;0.10;;;;;;;;;;4780945;29;20073;-93
2022/05/02 03:11:07;;;;;;;0.10;0.10;;;;;;;;;;4781161;29;20110;-93
2022/05/02 03:13:36;;;;;;;0.10;0.10;;;;;;;;;;4780828;29;20042;-92
2022/05/02 03:16:03;;;;;;;0.10;0.10;;;;;;;;;;4781259;29;20045;-93
2022/05/02 03:18:29;;;;;;;0.10;0.10;;;;;;;;;;4780858;29;20102;-92
2022/05/02 03:20:55;;;;;;;0.10;0.10;;;;;;;;;;4780769;29;20086;-93
2022/05/02 03:23:21;;;;;;;0.10;0.10;;;;;;;;;;4780824;29;20058;-94
2022/05/02 03:25:47;;;;;;;0.10;0.10;;;;;;;;;;4780523;29;20054;-94
2022/05/02 03:28:13;;;;;;;0.10;0.10;;;;;;;;;;4795669;29;20197;-92
2022/05/02 03:30:39;;;;;;;0.10;0.10;;;;;;;;;;4795981;29;20054;-93
2022/05/02 03:33:05;;;;;;;0.10;0.10;;;;;;;;;;4780415;29;20444;-94
2022/05/02 03:35:32;;;;;;;0.10;0.10;;;;;;;;;;4780456;29;20099;-94
2022/05/02 03:37:58;;;;;;;0.10;0.10;;;;;;;;;;4795363;29;20050;-94
2022/05/02 03:40:24;;;;;;;0.10;0.10;;;;;;;;;;4780751;29;20093;-95
2022/05/02 03:42:50;;;;;;;0.10;0.10;;;;;;;;;;4780816;29;20031;-94
2022/05/02 03:45:18;;;;;;;0.10;0.10;;;;;;;;;;4780252;29;20134;-91
2022/05/02 03:47:44;;;;;;;0.10;0.10;;;;;;;;;;4780809;29;20137;-95
2022/05/02 03:50:11;;;;;;;0.10;0.10;;;;;;;;;;4780194;29;20437;-94
2022/05/02 03:52:37;;;;;;;0.10;0.10;;;;;;;;;;4779912;29;20050;-94
2022/05/02 03:55:03;;;;;;;0.10;0.10;;;;;;;;;;4795237;29;20042;-95
2022/05/02 03:57:29;;;;;;;0.10;0.10;;;;;;;;;;4780169;29;20038;-94
2022/05/02 03:59:55;;;;;;;0.10;0.10;;;;;;;;;;4780145;29;20042;-94
2022/05/02 04:02:21;;;;;;;0.10;0.10;;;;;;;;;;4780011;29;20042;-94
2022/05/02 04:04:47;;;;;;;0.10;0.10;;;;;;;;;;4779842;29;20046;-94
2022/05/02 04:07:13;;;;;;;0.10;0.10;;;;;;;;;;4794926;29;20399;-93
2022/05/02 04:09:39;;;;;;;0.10;0.10;;;;;;;;;;4794816;29;20057;-93
2022/05/02 04:12:05;;;;;;;0.10;0.10;;;;;;;;;;4779687;29;20514;-92
2022/05/02 04:14:31;;;;;;;0.10;0.10;;;;;;;;;;4794827;29;20048;-94
2022/05/02 04:16:57;;;;;;;0.10;0.10;;;;;;;;;;4779863;29;20452;-94
2022/05/02 04:19:23;;;;;;;0.10;0.10;;;;;;;;;;4779775;29;20050;-95
2022/05/02 04:21:49;;;;;;;0.10;0.10;;;;;;;;;;4794811;29;20046;-94
2022/05/02 04:24:15;;;;;;;0.10;0.10;;;;;;;;;;4779863;29;20051;-93
2022/05/02 04:26:41;;;;;;;0.10;0.10;;;;;;;;;;4779384;29;20073;-94
2022/05/02 04:29:07;;;;;;;0.30;0.30;;;;;;;;;;4779657;29;20054;-95
2022/05/02 04:31:33;;;;;;;0.10;0.10;;;;;;;;;;4779449;29;20043;-94
2022/05/02 04:33:59;;;;;;;0.10;0.10;;;;;;;;;;4794418;29;20550;-95
2022/05/02 04:36:25;;;;;;;0.10;0.10;;;;;;;;;;4779712;29;20077;-93
2022/05/02 04:38:53;;;;;;;0.10;0.10;;;;;;;;;;4779643;29;20065;-95
2022/05/02 04:41:19;;;;;;;0.10;0.10;;;;;;;;;;4779449;29;20050;-94
2022/05/02 04:43:45;;;;;;;0.10;0.10;;;;;;;;;;4778517;29;20149;-94
2022/05/02 04:46:11;;;;;;;0.10;0.10;;;;;;;;;;4779392;29;20042;-95
2022/05/02 04:48:37;;;;;;;0.10;0.10;;;;;;;;;;4794526;29;20111;-94
2022/05/02 04:51:03;;;;;;;0.10;0.10;;;;;;;;;;4779275;29;20046;-94
2022/05/02 04:53:29;;;;;;;0.10;0.10;;;;;;;;;;4779074;29;20042;-94
2022/05/02 04:55:56;;;;;;;0.10;0.10;;;;;;;;;;4779407;29;20551;-94
2022/05/02 04:58:22;;;;;;;0.10;0.10;;;;;;;;;;4778954;29;20053;-92
2022/05/02 05:00:48;;;;;;;0.10;0.10;;;;;;;;;;4779287;29;20047;-94
2022/05/02 05:03:16;;;;;;;0.10;0.10;;;;;;;;;;4778162;29;20102;-92
2022/05/02 05:05:42;;;;;;;0.10;0.10;;;;;;;;;;4794291;29;20061;-92
2022/05/02 05:08:08;;;;;;;0.10;0.10;;;;;;;;;;4793629;29;20058;-94
2022/05/02 05:10:37;;;;;;;0.10;0.10;;;;;;;;;;4778676;29;20140;-92
2022/05/02 05:13:03;;;;;;;0.10;0.10;;;;;;;;;;4779154;29;20380;-91
2022/05/02 05:18:37;;;;;;;0.10;0.10;;;;;;;;;;4795743;29;20411;-92
2022/05/02 05:21:04;;;;;;;0.13;0.13;;;;;;;;;;4793458;29;20632;-92
2022/05/02 05:23:53;;;;;;;0.10;0.10;;;;;;;;;;4778552;29;20046;-94
2022/05/02 05:26:46;;;;;;;0.30;0.30;;;;;;;;;;4768589;29;20507;-91
2022/05/02 05:29:15;;;;;;;0.20;0.20;;;;;;;;;;4772974;29;20053;-93
2022/05/02 05:31:41;;;;;;;0.10;0.10;;;;;;;;;;4793636;29;20057;-93
2022/05/02 05:34:25;;;;;;;0.10;0.10;;;;;;;;;;4793351;29;20042;-93
2022/05/02 05:36:55;;;;;;;0.10;0.10;;;;;;;;;;4794018;29;20046;-93
2022/05/02 05:39:27;;;;;;;0.10;0.10;;;;;;;;;;4796268;29;20302;-95
2022/05/02 05:42:06;;;;;;;0.10;0.10;;;;;;;;;;4781229;29;20081;-94
2022/05/02 05:44:32;;;;;;;0.10;0.10;;;;;;;;;;4798271;29;20071;-94
2022/05/02 05:47:10;;;;;;;0.20;0.20;;;;;;;;;;4811573;29;20046;-92
2022/05/02 05:49:41;;;;;;;0.10;0.10;;;;;;;;;;4816168;29;20114;-92
2022/05/02 05:52:16;;;;;;;0.10;0.10;;;;;;;;;;4790063;29;20054;-96
2022/05/02 05:55:05;;;;;;;0.10;0.10;;;;;;;;;;4782409;29;20428;-94
2022/05/02 05:57:37;;;;;;;0.10;0.10;;;;;;;;;;4812724;29;20049;-91
2022/05/02 06:00:06;;;;;;;0.10;0.10;;;;;;;;;;4814745;29;20142;-91
2022/05/02 06:02:45;;;;;;;0.20;0.20;;;;;;;;;;4798318;29;20081;-94
2022/05/02 06:05:26;;;;;;;0.32;0.32;;;;;;;;;;4810050;29;20046;-95
2022/05/02 06:08:03;;;;;;;0.10;0.10;;;;;;;;;;4776297;29;20499;-95
2022/05/02 06:10:29;;;;;;;0.10;0.10;;;;;;;;;;4783356;29;20047;-92
2022/05/02 06:12:57;;;;;;;0.10;0.10;;;;;;;;;;4781000;29;20039;-93
2022/05/02 06:20:52;;;;;;;0.30;0.30;;;;;;;;;;4798669;29;20107;-90
2022/05/02 06:23:18;;;;;;;0.20;0.20;;;;;;;;;;4795799;29;20049;-90
2022/05/02 06:25:46;;;;;;;0.10;0.10;;;;;;;;;;4781340;29;20043;-90
2022/05/02 06:28:12;;;;;;;0.10;0.10;;;;;;;;;;4781065;29;20051;-92
2022/05/02 06:30:39;;;;;;;0.32;0.17;;;;;;;;;;4781092;29;20047;-91
2022/05/02 06:33:06;;;;;;;0.10;0.10;;;;;;;;;;4797062;29;20103;-91
2022/05/02 06:35:37;;;;;;;0.20;0.20;;;;;;;;;;4781986;29;20049;-91
2022/05/02 06:38:19;;;;;;;0.10;0.10;;;;;;;;;;4810874;29;20042;-90
2022/05/02 06:40:50;;;;;;;0.20;0.20;;;;;;;;;;4796177;29;20068;-91
2022/05/02 06:43:28;;;;;;;0.10;0.10;;;;;;;;;;4781419;29;20043;-91
2022/05/02 06:46:00;;;;;;;0.40;0.40;;;;;;;;;;4795632;29;20042;-92
2022/05/02 06:48:26;;;;;;;0.10;0.10;;;;;;;;;;4795784;29;20550;-91
2022/05/02 06:50:55;;;;;;;0.10;0.10;;;;;;;;;;4795972;29;20145;-93
2022/05/02 06:53:24;;;;;;;0.10;0.10;;;;;;;;;;4795742;29;20466;-92
2022/05/02 06:56:10;;;;;;;0.17;0.17;;;;;;;;;;4795566;29;20042;-93
2022/05/02 06:58:54;;;;;;;0.20;0.20;;;;;;;;;;4796279;29;20042;-91
2022/05/02 07:01:39;;;;;;;0.10;0.10;;;;;;;;;;4810980;29;20467;-92
2022/05/02 07:04:12;;;;;;;0.10;0.10;;;;;;;;;;4795793;29;20507;-92
2022/05/02 07:06:47;;;;;;;0.10;0.10;;;;;;;;;;4795683;29;20194;-92
2022/05/02 07:09:23;;;;;;;0.10;0.10;;;;;;;;;;4795736;29;20042;-93
2022/05/02 07:12:01;;;;;;;0.10;0.10;;;;;;;;;;4780906;29;20047;-92
2022/05/02 07:14:29;;;;;;;0.10;0.10;;;;;;;;;;4811528;29;20054;-96
2022/05/02 07:16:55;;;;;;;0.10;0.10;;;;;;;;;;4781028;29;20047;-95
2022/05/02 07:19:21;;;;;;;0.10;0.10;;;;;;;;;;4781037;29;20050;-95
2022/05/02 07:22:03;;;;;;;0.15;0.15;;;;;;;;;;4795629;29;20054;-94
2022/05/02 07:24:48;;;;;;;0.10;0.10;;;;;;;;;;4795889;29;20757;-93
2022/05/02 07:27:17;;;;;;;0.20;0.20;;;;;;;;;;4794773;29;20101;-93
2022/05/02 07:29:43;;;;;;;0.10;0.10;;;;;;;;;;4795181;29;20094;-93
2022/05/02 07:32:10;;;;;;;0.28;0.28;;;;;;;;;;4781229;29;20082;-92
2022/05/02 07:34:36;;;;;;;0.10;0.10;;;;;;;;;;4781061;29;20050;-92
2022/05/02 07:37:02;;;;;;;0.10;0.10;;;;;;;;;;4796060;29;20038;-91
2022/05/02 07:39:28;;;;;;;0.10;0.10;;;;;;;;;;4780620;29;20043;-93
2022/05/02 07:41:55;;;;;;;0.10;0.10;;;;;;;;;;4795228;29;20133;-94
2022/05/02 07:44:21;;;;;;;0.10;0.10;;;;;;;;;;4795415;29;20396;-94
2022/05/02 07:46:47;;;;;;;0.30;0.30;;;;;;;;;;4795433;29;20089;-94
2022/05/02 07:49:14;;;;;;;0.20;0.20;;;;;;;;;;4780467;29;20047;-93
2022/05/02 07:51:46;;;;;;;0.10;0.10;;;;;;;;;;4795107;29;20095;-93
2022/05/02 07:54:20;;;;;;;0.60;0.60;;;;;;;;;;4781215;29;20042;-95
2022/05/02 07:56:47;;;;;;;0.13;0.13;;;;;;;;;;4795450;29;20038;-94
2022/05/02 07:59:14;;;;;;;0.20;0.20;;;;;;;;;;4780274;29;20050;-92
2022/05/02 08:01:40;;;;;;;0.20;0.20;;;;;;;;;;4780537;29;20087;-94
2022/05/02 08:04:06;;;;;;;0.10;0.10;;;;;;;;;;4799085;29;20046;-94
2022/05/02 08:06:51;;;;;;;0.17;0.17;;;;;;;;;;4780364;29;20411;-91
2022/05/02 08:09:17;;;;;;;0.20;0.20;;;;;;;;;;4811977;29;20050;-94
2022/05/02 08:11:49;;;;;;;0.10;0.10;;;;;;;;;;4794907;29;20070;-92
2022/05/02 08:14:40;;;;;;;0.13;0.13;;;;;;;;;;4794794;29;20099;-93
2022/05/02 08:17:12;;;;;;;0.10;0.10;;;;;;;;;;4779888;29;20077;-92
2022/05/02 08:19:56;;;;;;;0.20;0.20;;;;;;;;;;4812085;29;20398;-96
2022/05/02 08:28:03;;;;;;;0.10;0.10;;;;;;;;;;4809474;29;20062;-94
2022/05/02 08:30:32;;;;;;;0.13;0.13;;;;;;;;;;4779877;29;20210;-94
2022/05/02 08:32:58;;;;;;;0.80;0.20;;;;;;;;;;4794467;29;20057;-93
2022/05/02 08:35:37;;;;;;;0.20;0.20;;;;;;;;;;4810178;29;20138;-94
2022/05/02 08:38:08;;;;;;;0.10;0.10;;;;;;;;;;4793414;29;20108;-93
2022/05/02 08:40:40;;;;;;;0.10;0.10;;;;;;;;;;4779588;29;20047;-93
2022/05/02 08:43:22;;;;;;;0.38;0.35;;;;;;;;;;4779981;29;20480;-95
2022/05/02 08:45:54;;;;;;;0.45;0.45;;;;;;;;;;4780381;29;20242;-95
2022/05/02 08:48:45;;;;;;;0.10;0.10;;;;;;;;;;4794712;29;20137;-95
2022/05/02 08:51:33;;;;;;;0.10;0.10;;;;;;;;;;4779723;29;20054;-94
2022/05/02 08:54:11;;;;;;;0.10;0.10;;;;;;;;;;4779209;29;20074;-94
2022/05/02 08:56:48;;;;;;;0.10;0.10;;;;;;;;;;4794639;29;20125;-94
2022/05/02 08:59:20;;;;;;;0.10;0.10;;;;;;;;;;4812782;29;20087;-95
2022/05/02 09:02:06;;;;;;;0.20;0.20;;;;;;;;;;4797078;29;20090;-92
2022/05/02 09:04:35;;;;;;;0.20;0.20;;;;;;;;;;4782120;29;20364;-91
2022/05/02 09:07:40;;;;;;;0.10;0.10;;;;;;;;;;4809999;29;20054;-95
2022/05/02 09:10:10;;;;;;;0.28;0.28;;;;;;;;;;4744089;30;20054;-94
2022/05/02 09:12:59;;;;;;;0.10;0.10;;;;;;;;;;4726557;30;20523;-94
2022/05/02 09:15:44;;;;;;;0.10;0.10;;;;;;;;;;4754885;29;20424;-95
2022/05/02 09:18:10;;;;;;;0.10;0.10;;;;;;;;;;4793759;29;20091;-94
2022/05/02 09:20:36;;;;;;;0.10;0.10;;;;;;;;;;4793674;29;20046;-94
2022/05/02 09:23:05;;;;;;;0.10;0.10;;;;;;;;;;4793386;29;20237;-94
2022/05/02 09:25:31;;;;;;;0.10;0.10;;;;;;;;;;4793010;29;20046;-95
2022/05/02 09:28:02;;;;;;;0.10;0.10;;;;;;;;;;4793148;29;20117;-94
2022/05/02 09:30:47;;;;;;;0.20;0.20;;;;;;;;;;4778508;29;20058;-91
2022/05/02 09:33:19;;;;;;;0.20;0.20;;;;;;;;;;4793756;29;20085;-95
2022/05/02 09:35:55;;;;;;;0.20;0.20;;;;;;;;;;4778775;29;20500;-95
2022/05/02 09:38:29;;;;;;;0.20;0.20;;;;;;;;;;4779416;29;20087;-95
2022/05/02 09:41:21;;;;;;;0.10;0.10;;;;;;;;;;4778520;29;20050;-93
2022/05/02 09:49:52;;;;;;;0.10;0.10;;;;;;;;;;4808884;29;20046;-93
2022/05/02 09:52:37;;;;;;;0.13;0.13;;;;;;;;;;4795350;29;20092;-93
2022/05/02 09:58:26;;;;;;;0.10;0.10;;;;;;;;;;4810963;29;20141;-94
2022/05/02 10:01:08;;;;;;;0.10;0.10;;;;;;;;;;4819013;29;20072;-91
2022/05/02 10:03:37;;;;;;;;;;;;;;;;;;4814925;29;20532;-91
2022/05/02 10:06:10;;;;;;;0.20;0.20;;;;;;;;;;4821708;29;19921;-93
2022/05/02 10:08:51;;;;;;;0.10;0.10;;;;;;;;;;4796466;29;20038;-95
2022/05/02 10:11:35;;;;;;;0.20;0.20;;;;;;;;;;4816758;29;20041;-95
2022/05/02 10:19:21;;;;;;;0.13;0.13;;;;;;;;;;5125734;24;20054;-95
2022/05/02 10:22:04;;;;;;;0.10;0.10;;;;;;;;;;4809528;29;20041;-94
2022/05/02 10:24:30;;;;;;;0.10;0.10;;;;;;;;;;4796685;29;20089;-96
2022/05/02 10:27:02;;;;;;;0.30;0.30;;;;;;;;;;4811357;29;20050;-94
2022/05/02 10:29:35;;;;;;;0.20;0.20;;;;;;;;;;4809311;29;20057;-95
2022/05/02 10:32:05;;;;;;;0.10;0.10;;;;;;;;;;4795382;29;20047;-96
2022/05/02 10:34:36;;;;;;;0.10;0.10;;;;;;;;;;4803480;29;20098;-95
2022/05/02 10:37:05;;;;;;;0.10;0.10;;;;;;;;;;4815160;29;20073;-96
2022/05/02 10:40:00;;;;;;;0.10;0.10;;;;;;;;;;4781877;29;20038;-96
2022/05/02 10:42:30;;;;;;;0.10;0.10;;;;;;;;;;4800159;29;20090;-96
2022/05/02 10:45:11;;;;;;;0.20;0.20;;;;;;;;;;4786463;29;20069;-92
2022/05/02 10:48:01;;;;;;;0.10;0.10;;;;;;;;;;4797615;29;20054;-96
2022/05/02 10:50:36;;;;;;;0.10;0.10;;;;;;;;;;4795790;29;20111;-94
2022/05/02 10:53:16;;;;;;;0.20;0.20;;;;;;;;;;4810011;29;20043;-96
2022/05/02 10:55:45;;;;;;;0.10;0.10;;;;;;;;;;4796531;29;20083;-95
2022/05/02 10:58:14;;;;;;;0.20;0.20;;;;;;;;;;4811325;29;20046;-94
2022/05/02 11:01:12;;;;;;;0.20;0.20;;;;;;;;;;4781550;29;20050;-94
2022/05/02 11:03:50;;;;;;;0.10;0.10;;;;;;;;;;4766755;29;20217;-95
2022/05/02 11:06:32;;;;;;;0.10;0.10;;;;;;;;;;4811064;29;20046;-93
2022/05/02 11:12:04;;;;;;;0.10;0.10;;;;;;;;;;5434040;23;20063;-94
2022/05/02 11:14:39;;;;;;;0.10;0.10;;;;;;;;;;4798937;29;20096;-96
2022/05/02 11:22:44;;;;;;;0.10;0.10;;;;;;;;;;4825378;29;20522;-94
2022/05/02 11:25:22;;;;;;;0.10;0.10;;;;;;;;;;4781833;29;20050;-93
2022/05/02 11:28:07;;;;;;;0.10;0.10;;;;;;;;;;4780535;29;20144;-92
2022/05/02 11:30:37;;;;;;;0.20;0.20;;;;;;;;;;4795267;29;20066;-93
2022/05/02 11:33:07;;;;;;;0.10;0.10;;;;;;;;;;4795607;29;20049;-92
2022/05/02 11:35:33;;;;;;;0.57;0.20;;;;;;;;;;4795618;29;20041;-94
2022/05/02 11:38:03;;;;;;;0.10;0.10;;;;;;;;;;4795327;29;20049;-93
2022/05/02 11:40:33;;;;;;;0.10;0.10;;;;;;;;;;4795543;29;20049;-94
2022/05/02 11:42:59;;;;;;;0.15;0.15;;;;;;;;;;4795364;29;20400;-94
2022/05/02 11:45:32;;;;;;;0.20;0.20;;;;;;;;;;4795711;29;20054;-95
2022/05/02 11:48:04;;;;;;;0.35;0.35;;;;;;;;;;4780959;29;20049;-94
2022/05/02 11:50:35;;;;;;;0.10;0.10;;;;;;;;;;4810239;29;20133;-93
2022/05/02 11:53:01;;;;;;;0.10;0.10;;;;;;;;;;4780564;29;20418;-93
2022/05/02 11:55:28;;;;;;;0.10;0.10;;;;;;;;;;4779872;29;20103;-92
2022/05/02 11:57:56;;;;;;;0.10;0.10;;;;;;;;;;4794811;29;20111;-91
2022/05/02 12:00:22;;;;;;;0.10;0.10;;;;;;;;;;4794707;29;20054;-91
2022/05/02 12:02:51;;;;;;;0.10;0.10;;;;;;;;;;4780037;29;20066;-92
2022/05/02 12:05:23;;;;;;;0.10;0.10;;;;;;;;;;4780377;29;20058;-91
2022/05/02 12:07:59;;;;;;;0.13;0.13;;;;;;;;;;4794744;29;20054;-91
2022/05/02 12:10:41;;;;;;;0.10;0.10;;;;;;;;;;4779329;29;20046;-91
2022/05/02 12:13:10;;;;;;;0.10;0.10;;;;;;;;;;4779729;29;20098;-92
2022/05/02 12:15:53;;;;;;;0.10;0.10;;;;;;;;;;4779616;29;20137;-91
2022/05/02 12:18:19;;;;;;;0.10;0.10;;;;;;;;;;4809012;29;20524;-90
2022/05/02 12:20:45;;;;;;;0.10;0.10;;;;;;;;;;4794305;29;20042;-90
2022/05/02 12:23:12;;;;;;;0.20;0.20;;;;;;;;;;4779160;29;20208;-91
2022/05/02 12:25:50;;;;;;;0.10;0.10;;;;;;;;;;4779579;29;20099;-92
2022/05/02 12:28:19;;;;;;;0.10;0.10;;;;;;;;;;4779618;29;20045;-91
2022/05/02 12:30:52;;;;;;;3.63;0.35;;;;;;;;;;4809604;29;20046;-94
2022/05/02 12:33:18;;;;;;;0.10;0.10;;;;;;;;;;4794068;29;20129;-94
2022/05/02 12:35:44;;;;;;;0.10;0.10;;;;;;;;;;4794761;29;20133;-92
2022/05/02 12:38:24;;;;;;;0.20;0.20;;;;;;;;;;4809513;29;20042;-94
2022/05/02 12:40:57;;;;;;;0.20;0.20;;;;;;;;;;4780028;29;20050;-92
2022/05/02 12:43:27;;;;;;;0.20;0.20;;;;;;;;;;4780150;29;20106;-92
2022/05/02 12:45:53;;;;;;;0.10;0.10;;;;;;;;;;4779526;29;20103;-91
2022/05/02 12:48:21;;;;;;;0.10;0.10;;;;;;;;;;4794032;29;20487;-91
2022/05/02 12:50:47;;;;;;;0.10;0.10;;;;;;;;;;4794052;29;20091;-92
2022/05/02 12:56:05;;;;;;;0.10;0.10;;;;;;;;;;4796355;29;20050;-93
2022/05/02 13:01:26;;;;;;;0.20;0.20;;;;;;;;;;4735017;29;20048;-94
2022/05/02 13:03:54;;;;;;;0.10;0.10;;;;;;;;;;4779063;29;20116;-92
2022/05/02 13:06:20;;;;;;;0.10;0.10;;;;;;;;;;4779424;29;20045;-94
2022/05/02 13:08:46;;;;;;;0.20;0.20;;;;;;;;;;4778955;29;20440;-91
2022/05/02 13:11:21;;;;;;;0.20;0.20;;;;;;;;;;4779092;29;20054;-92
2022/05/02 13:13:49;;;;;;;0.20;0.20;;;;;;;;;;4794346;29;20491;-91
2022/05/02 13:16:16;;;;;;;0.10;0.10;;;;;;;;;;4793826;29;20075;-93
2022/05/02 13:18:47;;;;;;;0.10;0.10;;;;;;;;;;4778462;29;20067;-92
2022/05/02 13:21:13;;;;;;;0.10;0.10;;;;;;;;;;4794425;29;20492;-92
2022/05/02 13:23:48;;;;;;;0.10;0.10;;;;;;;;;;4793102;29;20050;-93
2022/05/02 13:26:17;;;;;;;0.10;0.10;;;;;;;;;;4793761;29;20057;-93
2022/05/02 13:28:43;;;;;;;0.20;0.20;;;;;;;;;;4793370;29;20093;-92
2022/05/02 13:31:30;;;;;;;0.30;0.30;;;;;;;;;;4793631;29;20088;-92
2022/05/02 13:33:57;;;;;;;0.40;0.40;;;;;;;;;;4781219;29;20055;-91
2022/05/02 13:36:23;;;;;;;0.10;0.10;;;;;;;;;;4808470;29;20050;-93
2022/05/02 13:38:54;;;;;;;0.10;0.10;;;;;;;;;;4778571;29;20093;-92
2022/05/02 13:41:39;;;;;;;0.10;0.10;;;;;;;;;;4778852;29;20046;-92
2022/05/02 13:44:17;;;;;;;0.10;0.10;;;;;;;;;;4808507;29;20054;-92
2022/05/02 13:46:54;;;;;;;0.10;0.10;;;;;;;;;;4778508;29;20512;-92
2022/05/02 13:49:26;;;;;;;0.20;0.20;;;;;;;;;;4808319;29;20050;-91
2022/05/02 13:52:02;;;;;;;0.10;0.10;;;;;;;;;;4793224;29;20205;-91
2022/05/02 13:54:35;;;;;;;0.10;0.10;;;;;;;;;;4778065;29;20049;-90
2022/05/02 13:57:28;;;;;;;0.10;0.10;;;;;;;;;;4792569;29;20049;-88
2022/05/02 13:59:55;;;;;;;;;;;;;;;;;;4790520;29;20140;-90
2022/05/02 14:02:35;;;;;;;0.10;0.10;;;;;;;;;;4822453;29;20293;-88
2022/05/02 14:05:15;;;;;;;0.10;0.10;;;;;;;;;;4778734;29;20130;-89
2022/05/02 14:07:47;;;;;;;0.13;0.13;;;;;;;;;;4778886;29;20046;-89
2022/05/02 14:10:13;;;;;;;0.20;0.20;;;;;;;;;;4792917;29;20057;-89
2022/05/02 14:12:41;;;;;;;0.25;0.25;;;;;;;;;;4777413;29;20487;-88
2022/05/02 14:15:12;;;;;;;0.10;0.10;;;;;;;;;;4792693;29;20054;-89
2022/05/02 14:17:44;;;;;;;0.10;0.10;;;;;;;;;;4798234;29;20115;-90
2022/05/02 14:20:13;;;;;;;;;;;;;;;;;;4789649;29;20050;-89
2022/05/02 14:22:39;;;;;;;0.20;0.20;;;;;;;;;;4799636;29;19931;-89
2022/05/02 14:25:11;;;;;;;0.20;0.20;;;;;;;;;;4779083;29;20120;-89
2022/05/02 14:27:37;;;;;;;0.20;0.20;;;;;;;;;;4801377;29;20069;-90
2022/05/02 14:30:04;;;;;;;0.20;0.20;;;;;;;;;;4800818;29;20055;-89
2022/05/02 14:32:46;;;;;;;0.10;0.10;;;;;;;;;;4799741;29;20039;-90
2022/05/02 14:35:12;;;;;;;;;;;;;;;;;;4778027;29;20042;-89
2022/05/02 14:37:38;;;;;;;0.10;0.10;;;;;;;;;;4795286;29;20305;-90
2022/05/02 14:40:04;;;;;;;0.20;0.20;;;;;;;;;;4795970;29;20081;-90
2022/05/02 14:42:31;;;;;;;0.10;0.10;;;;;;;;;;4780734;29;20038;-89
2022/05/02 14:44:58;;;;;;;0.20;0.20;;;;;;;;;;4795869;29;20056;-90
2022/05/02 14:47:24;;;;;;;0.10;0.10;;;;;;;;;;4780654;29;20079;-90
2022/05/02 14:49:51;;;;;;;0.10;0.10;;;;;;;;;;4795631;29;20050;-89
2022/05/02 14:52:18;;;;;;;0.10;0.10;;;;;;;;;;4810391;29;20510;-90
2022/05/02 14:54:48;;;;;;;0.20;0.20;;;;;;;;;;4795556;29;20050;-90
2022/05/02 14:57:14;;;;;;;0.10;0.10;;;;;;;;;;4780919;29;20504;-90
2022/05/02 14:59:40;;;;;;;0.10;0.10;;;;;;;;;;4795502;29;20151;-90
2022/05/02 15:02:06;;;;;;;0.10;0.10;;;;;;;;;;4780713;29;20110;-90
2022/05/02 15:04:34;;;;;;;0.10;0.10;;;;;;;;;;4795534;29;20078;-89
2022/05/02 15:07:00;;;;;;;0.10;0.10;;;;;;;;;;4780588;29;20087;-89
2022/05/02 15:12:42;;;;;;;0.10;0.10;;;;;;;;;;4797510;29;20074;-89
2022/05/02 15:15:16;;;;;;;0.20;0.20;;;;;;;;;;4795178;29;20095;-89
2022/05/02 15:17:46;;;;;;;0.10;0.10;;;;;;;;;;4780164;29;20214;-90
2022/05/02 15:20:14;;;;;;;0.10;0.10;;;;;;;;;;4795124;29;20137;-90
2022/05/02 15:22:41;;;;;;;0.10;0.10;;;;;;;;;;4780097;29;20129;-89
2022/05/02 15:25:08;;;;;;;0.10;0.10;;;;;;;;;;4795438;29;20418;-89
2022/05/02 15:39:15;;;;;;;0.10;0.10;;;;;;;;;;4799408;29;20058;-91
2022/05/02 15:41:47;;;;;;;0.10;0.10;;;;;;;;;;4723244;30;20048;-92
2022/05/02 15:44:14;;;;;;;0.10;0.10;;;;;;;;;;4783304;29;20050;-92
2022/05/02 15:46:44;;;;;;;0.25;0.25;;;;;;;;;;4794219;29;20054;-91
2022/05/02 15:49:11;;;;;;;0.10;0.10;;;;;;;;;;4794668;29;20043;-91
2022/05/02 15:51:44;;;;;;;0.10;0.10;;;;;;;;;;4780803;29;20244;-92
2022/05/02 15:54:19;;;;;;;0.10;0.10;;;;;;;;;;4810580;29;20049;-91
2022/05/02 15:57:00;;;;;;;0.10;0.10;;;;;;;;;;4809857;29;20054;-91
2022/05/02 15:59:36;;;;;;;0.10;0.10;;;;;;;;;;4795116;29;20432;-90
2022/05/02 16:02:04;;;;;;;0.10;0.10;;;;;;;;;;4794545;29;20451;-91
2022/05/02 16:04:34;;;;;;;0.20;0.20;;;;;;;;;;4779759;29;20050;-93
2022/05/02 16:10:29;;;;;;;0.10;0.10;;;;;;;;;;4783426;29;20072;-89
2022/05/02 16:12:42;;;;;;;0.10;0.10;;;;;;;;;;4796512;29;20117;-91